createdAt,value
2023-05-29T00:02:02.954Z,76.98
2023-05-29T00:04:29.387Z,77.23
2023-05-29T00:06:56.451Z,76.81
2023-05-29T00:09:22.831Z,77.42
2023-05-29T00:11:52.955Z,76.63
2023-05-29T00:14:20.584Z,78.02
2023-05-29T00:16:51.180Z,77.55
2023-05-29T00:19:18.012Z,77.45
2023-05-29T00:21:44.643Z,77.79
2023-05-29T00:24:11.048Z,78.65
2023-05-29T00:26:37.510Z,77.91
2023-05-29T00:29:04.104Z,77.54
2023-05-29T00:31:33.061Z,77.60
2023-05-29T00:33:59.517Z,78.85
2023-05-29T00:36:26.751Z,78.72
2023-05-29T00:38:53.244Z,78.00
2023-05-29T00:41:20.457Z,78.46
2023-05-29T00:43:46.881Z,78.98
2023-05-29T00:46:15.264Z,78.03
2023-05-29T00:48:45.336Z,77.31
2023-05-29T00:51:13.052Z,79.17
2023-05-29T00:53:43.367Z,79.17
2023-05-29T00:56:11.000Z,79.66
2023-05-29T00:58:37.757Z,81.08
2023-05-29T01:01:04.395Z,82.08
2023-05-29T01:03:33.245Z,83.39
2023-05-29T01:06:00.065Z,81.89
2023-05-29T01:08:26.488Z,81.62
2023-05-29T01:11:00.195Z,82.72
2023-05-29T01:13:32.556Z,82.92
2023-05-29T01:15:59.025Z,82.35
2023-05-29T01:18:49.005Z,81.71
2023-05-29T01:21:51.127Z,82.63
2023-05-29T01:24:47.225Z,82.82
2023-05-29T01:27:18.473Z,82.57
2023-05-29T01:29:48.655Z,82.08
2023-05-29T01:32:15.367Z,82.53
2023-05-29T01:34:41.829Z,82.79
2023-05-29T01:37:10.844Z,82.91
2023-05-29T01:39:37.673Z,83.17
2023-05-29T01:42:05.862Z,82.96
2023-05-29T01:44:35.314Z,82.06
2023-05-29T01:47:03.589Z,83.81
2023-05-29T01:49:32.359Z,82.56
2023-05-29T01:52:01.315Z,82.58
2023-05-29T01:54:27.799Z,83.40
2023-05-29T01:56:54.248Z,82.09
2023-05-29T01:59:22.345Z,82.57
2023-05-29T02:01:49.093Z,84.09
2023-05-29T02:04:15.800Z,83.55
2023-05-29T02:06:42.280Z,82.34
2023-05-29T02:09:08.850Z,83.04
2023-05-29T02:11:35.255Z,82.17
2023-05-29T02:14:04.443Z,82.36
2023-05-29T02:16:34.334Z,81.82
2023-05-29T02:19:02.370Z,82.82
2023-05-29T02:21:28.856Z,82.65
2023-05-29T02:23:55.221Z,83.54
2023-05-29T02:26:21.720Z,83.31
2023-05-29T02:28:48.092Z,83.67
2023-05-29T02:31:14.481Z,84.56
2023-05-29T02:33:40.879Z,84.56
2023-05-29T02:36:11.031Z,84.67
2023-05-29T02:38:37.436Z,85.40
2023-05-29T02:41:03.843Z,84.32
2023-05-29T02:43:30.204Z,84.72
2023-05-29T02:45:56.682Z,83.91
2023-05-29T02:48:23.324Z,83.90
2023-05-29T02:50:49.686Z,84.23
2023-05-29T02:53:16.082Z,84.17
2023-05-29T02:55:43.723Z,84.28
2023-05-29T02:58:10.090Z,84.48
2023-05-29T03:00:36.434Z,83.82
2023-05-29T03:03:02.914Z,83.51
2023-05-29T03:05:29.377Z,84.16
2023-05-29T03:07:56.162Z,84.32
2023-05-29T03:10:23.067Z,84.35
2023-05-29T03:12:49.497Z,84.13
2023-05-29T03:15:16.516Z,84.55
2023-05-29T03:17:43.013Z,84.24
2023-05-29T03:20:14.489Z,85.68
2023-05-29T03:22:41.199Z,86.47
2023-05-29T03:25:08.963Z,85.31
2023-05-29T03:27:35.674Z,84.44
2023-05-29T03:30:10.628Z,84.09
2023-05-29T03:32:38.167Z,84.52
2023-05-29T03:35:05.338Z,84.27
2023-05-29T03:37:31.768Z,85.66
2023-05-29T03:39:58.483Z,85.00
2023-05-29T03:42:24.861Z,84.25
2023-05-29T03:44:52.521Z,85.55
2023-05-29T03:47:19.129Z,86.15
2023-05-29T03:49:45.753Z,87.24
2023-05-29T03:52:12.373Z,86.43
2023-05-29T03:54:39.040Z,86.13
2023-05-29T03:57:07.826Z,86.66
2023-05-29T03:59:34.360Z,87.13
2023-05-29T04:02:00.893Z,86.83
2023-05-29T04:04:27.981Z,87.50
2023-05-29T04:06:54.963Z,87.75
2023-05-29T04:09:21.355Z,88.68
2023-05-29T04:11:47.810Z,87.83
2023-05-29T04:14:14.193Z,87.64
2023-05-29T04:16:40.685Z,88.32
2023-05-29T04:19:07.324Z,88.90
2023-05-29T04:21:33.883Z,88.81
2023-05-29T04:24:01.711Z,89.21
2023-05-29T04:26:28.175Z,88.99
2023-05-29T04:28:58.140Z,88.60
2023-05-29T04:31:27.265Z,88.44
2023-05-29T04:33:55.905Z,88.81
2023-05-29T04:36:26.911Z,90.22
2023-05-29T04:39:04.709Z,89.90
2023-05-29T04:41:32.084Z,89.90
2023-05-29T04:44:00.268Z,90.48
2023-05-29T04:46:33.023Z,90.48
2023-05-29T04:48:59.758Z,91.55
2023-05-29T04:51:26.172Z,90.15
2023-05-29T04:53:52.720Z,90.73
2023-05-29T04:56:19.550Z,91.51
2023-05-29T04:58:47.989Z,92.67
2023-05-29T05:01:15.332Z,92.69
2023-05-29T05:03:42.829Z,93.51
2023-05-29T05:06:10.400Z,92.68
2023-05-29T05:08:37.619Z,93.54
2023-05-29T05:11:04.599Z,94.59
2023-05-29T05:13:31.090Z,94.29
2023-05-29T05:15:57.564Z,94.40
2023-05-29T05:18:24.025Z,94.48
2023-05-29T05:20:58.215Z,94.01
2023-05-29T05:23:24.801Z,93.83
2023-05-29T05:25:51.921Z,94.92
2023-05-29T05:28:18.354Z,95.15
2023-05-29T05:30:44.844Z,95.80
2023-05-29T05:33:11.407Z,96.89
2023-05-29T05:35:38.904Z,95.34
2023-05-29T05:38:05.581Z,95.27
2023-05-29T05:40:33.277Z,95.14
2023-05-29T05:43:08.199Z,95.17
2023-05-29T05:45:59.796Z,93.85
2023-05-29T05:48:27.571Z,90.65
2023-05-29T05:50:54.739Z,90.17
2023-05-29T05:53:22.375Z,89.38
2023-05-29T05:55:49.377Z,88.18
2023-05-29T05:58:16.262Z,88.53
2023-05-29T06:00:44.331Z,86.70
2023-05-29T06:03:11.284Z,85.74
2023-05-29T06:05:53.144Z,85.76
2023-05-29T06:08:19.945Z,85.21
2023-05-29T06:10:46.955Z,85.41
2023-05-29T06:13:14.335Z,85.20
2023-05-29T06:15:46.601Z,84.44
2023-05-29T06:18:13.828Z,84.33
2023-05-29T06:20:41.061Z,84.19
2023-05-29T06:23:08.761Z,84.55
2023-05-29T06:25:37.817Z,84.42
2023-05-29T06:28:06.964Z,84.32
2023-05-29T06:30:34.431Z,83.60
2023-05-29T06:33:06.741Z,83.23
2023-05-29T06:35:35.318Z,82.21
2023-05-29T06:38:01.778Z,83.59
2023-05-29T06:40:28.257Z,83.45
2023-05-29T06:42:55.340Z,85.33
2023-05-29T06:45:35.995Z,83.38
2023-05-29T06:48:02.622Z,83.49
2023-05-29T06:50:29.173Z,84.47
2023-05-29T06:53:00.360Z,84.20
2023-05-29T06:55:28.766Z,85.33
2023-05-29T06:57:57.812Z,83.40
2023-05-29T07:00:26.041Z,82.38
2023-05-29T07:03:20.009Z,83.39
2023-05-29T07:05:46.885Z,81.74
2023-05-29T07:08:13.280Z,83.52
2023-05-29T07:10:39.796Z,83.01
2023-05-29T07:13:07.313Z,82.48
2023-05-29T07:15:34.492Z,80.91
2023-05-29T07:18:01.500Z,81.58
2023-05-29T07:20:28.921Z,83.18
2023-05-29T07:22:59.133Z,81.91
2023-05-29T07:25:27.198Z,80.98
2023-05-29T07:27:53.600Z,80.48
2023-05-29T07:30:20.021Z,81.24
2023-05-29T07:32:46.861Z,82.39
2023-05-29T07:35:13.339Z,81.42
2023-05-29T07:37:39.814Z,81.27
2023-05-29T07:40:06.868Z,80.68
2023-05-29T07:43:09.493Z,79.96
2023-05-29T07:45:56.449Z,78.31
2023-05-29T07:48:23.746Z,76.28
2023-05-29T07:50:52.950Z,76.37
2023-05-29T07:53:19.478Z,77.90
2023-05-29T07:55:47.512Z,76.03
2023-05-29T07:58:14.258Z,75.19
2023-05-29T08:00:41.054Z,75.07
2023-05-29T08:03:09.525Z,75.50
2023-05-29T08:05:54.426Z,74.90
2023-05-29T08:08:21.671Z,73.83
2023-05-29T08:10:48.042Z,72.59
2023-05-29T08:13:14.451Z,74.60
2023-05-29T08:15:43.767Z,72.54
2023-05-29T08:18:10.194Z,72.24
2023-05-29T08:20:36.691Z,70.24
2023-05-29T08:23:03.214Z,71.45
2023-05-29T08:25:29.593Z,71.43
2023-05-29T08:27:56.097Z,69.84
2023-05-29T08:30:22.876Z,69.64
2023-05-29T08:32:51.216Z,69.58
2023-05-29T08:35:17.697Z,70.87
2023-05-29T08:37:44.453Z,69.84
2023-05-29T08:40:11.945Z,69.02
2023-05-29T08:42:46.790Z,69.49
2023-05-29T08:45:15.543Z,67.87
2023-05-29T08:47:44.368Z,65.23
2023-05-29T08:50:14.346Z,65.82
2023-05-29T08:52:41.669Z,65.74
2023-05-29T08:55:08.390Z,65.32
2023-05-29T08:57:35.413Z,66.17
2023-05-29T09:00:02.231Z,66.71
2023-05-29T09:02:28.681Z,66.50
2023-05-29T09:04:55.315Z,66.61
2023-05-29T09:07:22.389Z,65.45
2023-05-29T09:09:49.468Z,66.43
2023-05-29T09:12:17.966Z,65.46
2023-05-29T09:14:46.158Z,66.17
2023-05-29T09:17:13.623Z,65.91
2023-05-29T09:19:41.593Z,63.27
2023-05-29T09:22:11.031Z,65.20
2023-05-29T09:24:39.462Z,63.35
2023-05-29T09:27:06.339Z,65.08
2023-05-29T09:29:33.868Z,63.75
2023-05-29T09:32:04.201Z,64.36
2023-05-29T09:34:32.235Z,64.39
2023-05-29T09:37:09.450Z,62.88
2023-05-29T09:39:54.528Z,61.86
2023-05-29T09:42:22.750Z,61.33
2023-05-29T09:44:54.703Z,59.44
2023-05-29T09:47:22.701Z,59.71
2023-05-29T09:49:49.102Z,59.61
2023-05-29T09:52:16.710Z,59.57
2023-05-29T09:54:47.441Z,59.25
2023-05-29T09:57:15.805Z,58.40
2023-05-29T09:59:45.993Z,56.15
2023-05-29T10:02:14.802Z,56.74
2023-05-29T10:04:41.535Z,56.92
2023-05-29T10:07:17.305Z,55.42
2023-05-29T10:09:49.240Z,55.04
2023-05-29T10:12:21.260Z,54.70
2023-05-29T10:14:50.984Z,55.31
2023-05-29T10:17:23.873Z,55.92
2023-05-29T10:19:51.722Z,55.60
2023-05-29T10:22:21.625Z,56.53
2023-05-29T10:24:51.578Z,55.10
2023-05-29T10:27:19.007Z,53.90
2023-05-29T10:29:49.952Z,53.84
2023-05-29T10:32:33.709Z,52.99
2023-05-29T10:35:03.426Z,51.02
2023-05-29T10:37:51.832Z,47.74
2023-05-29T10:40:24.443Z,47.53
2023-05-29T10:42:55.477Z,48.14
2023-05-29T10:45:33.690Z,47.93
2023-05-29T10:48:09.421Z,48.57
2023-05-29T10:50:36.714Z,44.10
2023-05-29T10:53:03.276Z,47.00
2023-05-29T10:55:37.091Z,46.79
2023-05-29T10:58:13.634Z,45.79
2023-05-29T11:00:43.715Z,45.54
2023-05-29T11:03:11.739Z,44.67
2023-05-29T11:06:20.849Z,46.76
2023-05-29T11:08:57.982Z,42.07
2023-05-29T11:11:32.399Z,41.80
2023-05-29T11:14:03.988Z,42.01
2023-05-29T11:16:33.500Z,41.67
2023-05-29T11:19:12.940Z,40.63
2023-05-29T11:21:55.980Z,40.50
2023-05-29T11:24:27.096Z,40.53
2023-05-29T11:26:55.452Z,41.12
2023-05-29T11:29:28.998Z,40.05
2023-05-29T11:32:08.965Z,41.58
2023-05-29T11:34:40.055Z,41.40
2023-05-29T11:37:06.970Z,40.18
2023-05-29T11:39:39.437Z,41.41
2023-05-29T11:42:07.503Z,40.43
2023-05-29T11:44:33.882Z,39.62
2023-05-29T11:47:04.944Z,39.07
2023-05-29T11:49:34.177Z,39.35
2023-05-29T11:52:18.205Z,39.87
2023-05-29T11:54:49.592Z,40.13
2023-05-29T11:57:20.724Z,40.16
2023-05-29T11:59:48.177Z,40.51
2023-05-29T12:02:15.202Z,41.10
2023-05-29T12:04:41.919Z,40.11
2023-05-29T12:07:19.134Z,40.71
2023-05-29T12:09:45.508Z,40.78
2023-05-29T12:12:11.890Z,39.71
2023-05-29T12:14:38.249Z,39.70
2023-05-29T12:17:06.040Z,39.96
2023-05-29T12:19:32.538Z,41.35
2023-05-29T12:21:59.046Z,41.75
2023-05-29T12:24:32.164Z,40.99
2023-05-29T12:27:08.450Z,39.95
2023-05-29T12:29:34.928Z,39.82
2023-05-29T12:32:01.588Z,39.97
2023-05-29T12:34:37.108Z,39.25
2023-05-29T12:37:14.252Z,39.29
2023-05-29T12:39:41.423Z,41.58
2023-05-29T12:42:08.491Z,43.27
2023-05-29T12:44:35.819Z,39.98
2023-05-29T12:47:02.287Z,41.60
2023-05-29T12:49:30.238Z,41.14
2023-05-29T12:52:06.449Z,42.44
2023-05-29T12:54:32.863Z,42.12
2023-05-29T12:57:01.985Z,41.65
2023-05-29T12:59:28.379Z,40.79
2023-05-29T13:01:54.799Z,41.35
2023-05-29T13:04:21.173Z,41.71
2023-05-29T13:06:47.580Z,41.98
2023-05-29T13:09:14.221Z,41.53
2023-05-29T13:11:40.561Z,43.32
2023-05-29T13:14:06.943Z,41.43
2023-05-29T13:16:33.696Z,40.31
2023-05-29T13:19:00.276Z,40.41
2023-05-29T13:21:26.683Z,40.31
2023-05-29T13:23:53.110Z,40.84
2023-05-29T13:26:19.487Z,40.55
2023-05-29T13:28:45.877Z,41.07
2023-05-29T13:31:12.265Z,41.81
2023-05-29T13:33:38.657Z,42.63
2023-05-29T13:36:06.211Z,43.34
2023-05-29T13:38:32.622Z,43.02
2023-05-29T13:40:59.025Z,43.27
2023-05-29T13:43:35.770Z,43.67
2023-05-29T13:46:06.323Z,43.36
2023-05-29T13:48:36.072Z,43.25
2023-05-29T13:51:02.565Z,42.68
2023-05-29T13:53:28.929Z,42.05
2023-05-29T13:55:55.624Z,43.53
2023-05-29T13:58:22.208Z,44.35
2023-05-29T14:00:48.618Z,44.23
2023-05-29T14:03:15.081Z,44.74
2023-05-29T14:05:41.600Z,43.95
2023-05-29T14:08:08.029Z,44.10
2023-05-29T14:10:34.367Z,43.89
2023-05-29T14:13:00.781Z,43.36
2023-05-29T14:15:27.190Z,44.37
2023-05-29T14:17:53.608Z,44.06
2023-05-29T14:20:20.091Z,44.20
2023-05-29T14:22:46.480Z,42.77
2023-05-29T14:25:12.894Z,43.87
2023-05-29T14:27:39.265Z,43.93
2023-05-29T14:30:07.050Z,45.13
2023-05-29T14:32:33.500Z,43.84
2023-05-29T14:34:59.976Z,43.92
2023-05-29T14:37:26.522Z,44.45
2023-05-29T14:39:52.904Z,44.90
2023-05-29T14:42:19.342Z,45.65
2023-05-29T14:44:45.753Z,44.40
2023-05-29T14:47:12.163Z,44.34
2023-05-29T14:49:38.916Z,44.36
2023-05-29T14:52:05.750Z,44.54
2023-05-29T14:54:32.251Z,45.11
2023-05-29T14:56:58.665Z,45.47
2023-05-29T14:59:26.226Z,45.58
2023-05-29T15:01:54.376Z,45.29
2023-05-29T15:04:20.788Z,46.03
2023-05-29T15:06:55.227Z,45.43
2023-05-29T15:09:25.375Z,45.88
2023-05-29T15:11:51.713Z,45.87
2023-05-29T15:14:18.274Z,46.61
2023-05-29T15:16:45.754Z,46.86
2023-05-29T15:19:12.228Z,47.30
2023-05-29T15:21:38.657Z,48.01
2023-05-29T15:24:05.402Z,47.25
2023-05-29T15:26:31.810Z,46.94
2023-05-29T15:28:58.702Z,47.44
2023-05-29T15:31:26.203Z,47.80
2023-05-29T15:33:52.641Z,48.43
2023-05-29T15:36:21.115Z,47.97
2023-05-29T15:38:47.757Z,48.16
2023-05-29T15:41:14.192Z,48.09
2023-05-29T15:43:41.623Z,48.36
2023-05-29T15:46:09.217Z,47.87
2023-05-29T15:48:36.007Z,47.53
2023-05-29T15:51:02.418Z,47.32
2023-05-29T15:53:28.843Z,47.92
2023-05-29T15:55:55.687Z,48.50
2023-05-29T15:58:22.987Z,48.60
2023-05-29T16:00:49.797Z,47.23
2023-05-29T16:03:16.480Z,47.14
2023-05-29T16:05:42.804Z,46.93
2023-05-29T16:08:09.261Z,47.24
2023-05-29T16:10:36.437Z,47.60
2023-05-29T16:13:02.793Z,47.70
2023-05-29T16:15:29.272Z,47.62
2023-05-29T16:17:55.697Z,47.76
2023-05-29T16:20:23.380Z,48.35
2023-05-29T16:22:49.887Z,48.32
2023-05-29T16:25:16.666Z,48.11
2023-05-29T16:27:43.347Z,48.09
2023-05-29T16:30:10.491Z,48.87
2023-05-29T16:32:37.318Z,49.27
2023-05-29T16:35:04.744Z,48.17
2023-05-29T16:37:31.789Z,48.24
2023-05-29T16:39:58.362Z,47.32
2023-05-29T16:42:25.092Z,46.44
2023-05-29T16:44:53.408Z,46.03
2023-05-29T16:47:20.514Z,46.66
2023-05-29T16:49:46.954Z,47.17
2023-05-29T16:52:15.093Z,47.38
2023-05-29T16:54:41.764Z,47.88
2023-05-29T16:57:11.179Z,47.82
2023-05-29T16:59:38.456Z,47.91
2023-05-29T17:02:05.922Z,48.46
2023-05-29T17:04:34.478Z,48.84
2023-05-29T17:07:01.225Z,48.67
2023-05-29T17:09:28.194Z,49.00
2023-05-29T17:11:56.179Z,49.16
2023-05-29T17:14:23.613Z,49.87
2023-05-29T17:16:50.728Z,50.20
2023-05-29T17:19:17.206Z,50.49
2023-05-29T17:21:44.649Z,50.28
2023-05-29T17:24:11.239Z,51.41
2023-05-29T17:26:37.599Z,51.43
2023-05-29T17:29:03.942Z,51.99
2023-05-29T17:31:30.377Z,51.77
2023-05-29T17:33:57.919Z,51.59
2023-05-29T17:36:24.395Z,52.12
2023-05-29T17:38:52.884Z,52.15
2023-05-29T17:41:19.294Z,52.52
2023-05-29T17:43:45.707Z,53.05
2023-05-29T17:46:12.362Z,53.45
2023-05-29T17:48:38.915Z,53.67
2023-05-29T17:51:05.342Z,53.77
2023-05-29T17:53:31.775Z,53.43
2023-05-29T17:55:58.178Z,53.09
2023-05-29T17:58:24.699Z,53.22
2023-05-29T18:00:53.884Z,53.71
2023-05-29T18:03:20.329Z,54.16
2023-05-29T18:05:46.771Z,54.03
2023-05-29T18:08:13.124Z,54.15
2023-05-29T18:10:39.557Z,54.79
2023-05-29T18:13:06.001Z,55.41
2023-05-29T18:15:32.431Z,55.61
2023-05-29T18:17:58.844Z,55.52
2023-05-29T18:20:30.142Z,55.15
2023-05-29T18:22:59.496Z,55.04
2023-05-29T18:25:26.730Z,55.43
2023-05-29T18:27:53.253Z,55.83
2023-05-29T18:30:19.668Z,56.02
2023-05-29T18:32:46.182Z,56.23
2023-05-29T18:35:12.592Z,56.16
2023-05-29T18:37:40.048Z,56.34
2023-05-29T18:40:07.222Z,56.45
2023-05-29T18:42:33.621Z,57.03
2023-05-29T18:44:59.957Z,57.18
2023-05-29T18:47:26.366Z,57.73
2023-05-29T18:49:55.117Z,57.80
2023-05-29T18:52:23.343Z,57.86
2023-05-29T18:54:49.696Z,57.80
2023-05-29T18:57:16.106Z,58.22
2023-05-29T18:59:46.153Z,58.33
2023-05-29T19:02:12.687Z,58.38
2023-05-29T19:04:39.098Z,58.53
2023-05-29T19:07:06.282Z,58.82
2023-05-29T19:09:32.816Z,59.22
2023-05-29T19:11:59.182Z,59.88
2023-05-29T19:14:25.803Z,60.42
2023-05-29T19:16:52.200Z,60.59
2023-05-29T19:19:19.456Z,60.78
2023-05-29T19:21:46.384Z,60.14
2023-05-29T19:24:12.894Z,60.15
2023-05-29T19:26:42.638Z,59.92
2023-05-29T19:29:09.425Z,59.60
2023-05-29T19:31:36.259Z,59.78
2023-05-29T19:34:03.417Z,59.36
2023-05-29T19:36:29.939Z,58.87
2023-05-29T19:38:59.025Z,58.84
2023-05-29T19:41:26.048Z,58.96
2023-05-29T19:43:52.441Z,58.76
2023-05-29T19:46:19.024Z,58.83
2023-05-29T19:48:45.560Z,58.55
2023-05-29T19:51:12.626Z,59.00
2023-05-29T19:53:41.346Z,58.94
2023-05-29T19:56:08.372Z,59.26
2023-05-29T19:58:34.729Z,59.56
2023-05-29T20:01:01.586Z,59.98
2023-05-29T20:03:30.486Z,59.52
2023-05-29T20:05:57.294Z,59.54
2023-05-29T20:08:23.677Z,59.43
2023-05-29T20:10:58.093Z,59.21
2023-05-29T20:13:27.498Z,59.68
2023-05-29T20:15:54.060Z,60.22
2023-05-29T20:18:20.556Z,59.70
2023-05-29T20:20:47.949Z,60.02
2023-05-29T20:23:14.526Z,60.11
2023-05-29T20:25:41.162Z,59.84
2023-05-29T20:28:08.233Z,59.11
2023-05-29T20:30:34.750Z,59.41
2023-05-29T20:33:01.173Z,59.38
2023-05-29T20:35:27.584Z,59.07
2023-05-29T20:37:53.977Z,59.86
2023-05-29T20:40:21.422Z,60.10
2023-05-29T20:42:48.445Z,60.37
2023-05-29T20:45:15.614Z,60.30
2023-05-29T20:47:44.905Z,60.29
2023-05-29T20:50:15.088Z,60.74
2023-05-29T20:52:41.504Z,60.68
2023-05-29T20:55:08.314Z,60.42
2023-05-29T20:57:34.701Z,60.89
2023-05-29T21:00:01.476Z,60.76
2023-05-29T21:02:27.920Z,61.51
2023-05-29T21:04:54.326Z,61.58
2023-05-29T21:07:20.727Z,61.33
2023-05-29T21:09:47.091Z,61.08
2023-05-29T21:12:13.676Z,61.11
2023-05-29T21:14:40.134Z,60.82
2023-05-29T21:17:06.849Z,60.38
2023-05-29T21:19:33.218Z,60.57
2023-05-29T21:21:59.681Z,60.38
2023-05-29T21:24:26.651Z,60.63
2023-05-29T21:26:53.053Z,60.25
2023-05-29T21:29:19.416Z,60.19
2023-05-29T21:31:46.262Z,60.07
2023-05-29T21:34:12.682Z,60.24
2023-05-29T21:36:39.373Z,60.26
2023-05-29T21:39:06.342Z,60.47
2023-05-29T21:41:32.951Z,60.34
2023-05-29T21:43:59.292Z,60.42
2023-05-29T21:46:25.724Z,60.59
2023-05-29T21:48:52.106Z,60.30
2023-05-29T21:51:18.539Z,60.45
2023-05-29T21:53:44.878Z,60.45
2023-05-29T21:56:11.594Z,60.56
2023-05-29T21:58:37.934Z,60.67
2023-05-29T22:01:04.496Z,60.60
2023-05-29T22:03:31.208Z,60.51
2023-05-29T22:05:57.597Z,60.73
2023-05-29T22:08:24.269Z,60.23
2023-05-29T22:10:51.949Z,60.64
2023-05-29T22:13:20.570Z,60.83
2023-05-29T22:15:47.211Z,61.48
2023-05-29T22:18:13.565Z,61.00
2023-05-29T22:20:40.004Z,60.57
2023-05-29T22:23:16.875Z,60.27
2023-05-29T22:25:45.052Z,59.26
2023-05-29T22:28:12.977Z,58.41
2023-05-29T22:30:39.296Z,59.08
2023-05-29T22:33:05.687Z,59.13
2023-05-29T22:35:32.601Z,59.23
2023-05-29T22:37:59.523Z,58.38
2023-05-29T22:40:25.850Z,58.25
2023-05-29T22:42:52.197Z,58.56
2023-05-29T22:45:18.546Z,58.41
2023-05-29T22:47:45.553Z,58.69
2023-05-29T22:50:12.601Z,58.56
2023-05-29T22:52:39.683Z,57.77
2023-05-29T22:55:06.582Z,57.24
2023-05-29T22:57:33.699Z,56.89
2023-05-29T23:00:00.382Z,57.54
2023-05-29T23:02:28.420Z,56.84
2023-05-29T23:04:55.837Z,57.41
2023-05-29T23:07:22.817Z,57.19
2023-05-29T23:09:49.225Z,57.02
2023-05-29T23:12:15.580Z,57.63
2023-05-29T23:14:41.960Z,57.45
2023-05-29T23:17:08.429Z,57.57
2023-05-29T23:19:35.570Z,57.79
2023-05-29T23:22:02.899Z,58.09
2023-05-29T23:24:29.420Z,57.52
2023-05-29T23:26:56.114Z,56.38
2023-05-29T23:29:22.955Z,56.36
2023-05-29T23:31:49.608Z,56.74
2023-05-29T23:34:16.748Z,56.23
2023-05-29T23:36:46.653Z,56.21
2023-05-29T23:39:14.081Z,56.05
2023-05-29T23:41:41.908Z,55.96
2023-05-29T23:44:09.137Z,55.22
2023-05-29T23:46:36.476Z,55.37
2023-05-29T23:49:04.233Z,55.92
2023-05-29T23:51:31.315Z,55.74
2023-05-29T23:53:58.565Z,55.58
2023-05-29T23:56:26.299Z,55.66
2023-05-29T23:58:53.425Z,55.50
